Flight Track Log - Related Links

Times and Time Zones

All times are in EST time to prevent confusion due to time zone crossing. See the SKW4664 flight status page for this flight to view local times or setup timezone preferences in your user account.

Time Position Orientation Groundspeed Altitude Reporting Facility
EST Latitude Longitude Course Direction KTS MPH feet Rate Location/Type
Wed 03:31:27 PM 42.2039 -83.3697 North 156 180 1,300  Level Cleveland Center
Wed 03:32:28 PM 42.1764 -83.4250 236° Southwest 198 228 3,200 1,846 Climbing Cleveland Center
Wed 03:33:11 PM 42.1608 -83.4594 239° Southwest 204 235 4,500 2,262 Climbing Cleveland Center
Wed 03:33:29 PM 42.1686 -83.4969 286° West 278 320 5,500 3,097 Climbing Cleveland Center
Wed 03:34:00 PM 42.3637 -83.4349 North  Level Estimated
Wed 03:34:13 PM 42.2039 -83.5475 313° West 263 303 7,700  Level Cleveland Center
Wed 03:34:30 PM 42.2231 -83.5781 310° West 276 318 8,600 2,571 Climbing Cleveland Center
Wed 03:35:00 PM 42.4041 -83.4284 North  Level FlightAware Approximate
Wed 03:35:37 PM 42.3108 -83.6050 347° North 317 365 11,300  Level Cleveland Center
Wed 03:36:00 PM 42.4571 -83.4197 North  Level FlightAware Approximate
Wed 03:36:17 PM 42.3542 -83.5914 13° North 318 366 12,300  Level Cleveland Center
Wed 03:36:37 PM 42.4014 -83.5731 16° North 342 394 12,900 774 Climbing Cleveland Center
Wed 03:37:19 PM 42.4658 -83.5456 17° North 342 394 13,100 629 Climbing Cleveland Center
Wed 03:38:22 PM 42.5644 -83.5064 16° North 360 414 14,000 432 Climbing Cleveland Center
Wed 03:39:24 PM 42.6686 -83.4806 10° North 382 440 14,000 48 Level Cleveland Center
Wed 03:40:26 PM 42.7600 -83.5403 334° Northwest 368 423 14,100 48 Climbing Cleveland Center
Wed 03:41:28 PM 42.8511 -83.6033 333° Northwest 369 425 14,100  Level Cleveland Center
Wed 03:42:30 PM 42.9439 -83.6672 333° Northwest 372 428 14,100  Level Cleveland Center
Wed 03:43:32 PM 43.0547 -83.7433 333° Northwest 374 430 14,100 -484 Level Cleveland Center
Wed 03:44:34 PM 43.1467 -83.8075 333° Northwest 372 428 13,100 -1,500 Descending Cleveland Center
Wed 03:45:36 PM 43.2372 -83.8708 333° Northwest 367 422 11,000 -1,597 Descending Cleveland Center
Wed 03:46:38 PM 43.3047 -83.9506 319° Northwest 312 359 9,800 -1,790 Descending Cleveland Center
Wed 03:47:40 PM 43.3497 -84.0467 303° West 282 325 7,300 -2,274 Descending Cleveland Center
Wed 03:48:42 PM 43.3775 -84.1381 293° West 263 303 5,100 -2,177 Descending Cleveland Center
Wed 03:49:44 PM 43.3786 -84.2325 271° West 235 270 2,800 -1,344 Descending Cleveland Center
Wed 03:50:47 PM 43.3906 -84.2914 286° West 217 250 2,300 -192 Descending Cleveland Center
Wed 03:51:49 PM 43.4258 -84.2331 50° Northeast 188 216 2,400  Climbing Cleveland Center
Wed 03:52:51 PM 43.4600 -84.1850 46° Northeast 179 206 2,300 -339 Descending Cleveland Center
Wed 03:53:53 PM 43.4911 -84.1403 46° Northeast 155 178 1,700 -435 Descending Cleveland Center
Wed 03:54:55 PM 43.5164 -84.1042 46° Northeast 148 170 1,400 -290 Descending Cleveland Center

Login

Don't have an account? Register now (free) for customized features, flight alerts, and more!